首页
METAR-TAF:

METAR-TAF

机场 :

赫维什-巴拉顿国际机场

黑維茲, 匈牙利

纬度: 46-41-11N, 经度: 017-09-33E, 海拔: 124米

当前天气观测

该预报发布于55分钟前的16:15 UTC
风速9节,风向西南,在南转西南西之间变化
温度 15°C
湿度 51%
气压 1018 hPa
能见度10公里或以上
1500米以下无云,无积雨云

METAR: LHSM 171615Z AUTO 23009KT 200V260 CAVOK 15/05 Q1018

时间: 18:10 (17:10 UTC)

预报

该预报发布于5小时和55分钟前的11:15 UTC
预报有效从17日的 12点(UTC)到 17日的 21点(UTC)
风速10节,风向西南
能见度10公里或以上
1500米以下无云,无积雨云
短暂存在
从 17日的 12点(UTC)到 17日的 16点(UTC)
风速15节,风向西南,有时为25节阵风

TAF: LHSM 171115Z 1712/1721 23010KT CAVOK TEMPO 1712/1716 23015G25KT

超过4000个机场的气象观测和天气预报(METAR&TAF报告)。

可查询的气象台以黄色和红色小点在地图上表示。

将鼠标移到小点上方,可查看气象台名称。

然后点击查看天气观测和预报。

如需切换地图:点击带黑十字的绿色按钮放大地图;点击带横线的绿色按钮缩小地图;或者点击绿色箭头查看邻近地区的地图。


METAR-TAF: